Relevés horaires Bierset (Belgique)


Relevés horaires à Bierset - Vendredi 09 Juin 2023
Heure UTC1 Température [°C] Vent [km/h] Hum. [%] Pres.4 [hPa] Visi. [Km] Nébu. [octa] Préc.5 [mm] Cond.
2m. Res. Ros. Dir.2 Vit. Moy. Raf.3
23:00 21.5 21.5 9.8 ESE 3.7 5.6 7.4 47 1013.4(1.0/3h) 30 1/8 -- --
22:00 22.5 22.5 9.8 E 5.6 5.6 9.3 44 1013.2(1.4/3h) 30 1/8 -- --
21:00 23.3 23.3 9.6 E 5.6 9.3 20.4 42 1012.8(1.3/3h) 30 1/8 -- --
20:00 24.2 24.2 9.6 E 7.4 9.3 20.4 40 1012.2(1.1/3h) 30 1/8 -- --
19:00 25.8 25.8 10.1 E 7.4 9.3 13.0 37 1011.6(0.5/3h) 30 1/8 -- --
18:00 26.5 26.5 10.0 E 7.4 11.1 22.2 35 1011.3(0.0/3h) 30 2/8 0/12h
--
17:00 27.5 27.5 9.6 E 9.3 11.1 22.2 33 1010.8(-0.6/3h) 30 2/8 -- --
16:00 27.5 27.5 10.3 E 7.4 11.1 18.5 34 1010.9(-0.7/3h) 30 3/8 -- --
15:00 26.7 26.7 9.7 E 7.4 11.1 20.4 34 1011.3(-0.7/3h) 30 3/8 -- --
14:00 29.2 29.2 8.6 ESE 9.3 11.1 20.4 28 1011.4(-0.8/3h) 30 3/8 -- --
13:00 28.2 28.2 9.7 ESE 7.4 9.3 16.7 31 1011.6(-1.1/3h) 30 2/8 -- --
12:00 26.3 26.3 9.3 E 9.3 11.1 24.1 34 1012(-1.0/3h) 30 2/8 0/6h
--
11:00 26.9 26.9 9.9 E 9.3 11.1 20.4 34 1012.4(-1.1/3h) 30 2/8 -- --
10:00 26.1 26.1 10.7 E 9.3 9.3 24.1 38 1012.8(-0.6/3h) 30 0/8 -- --
09:00 24.5 24.5 10.5 E 7.4 7.4 16.7 41 1013.2(-0.3/3h) 30 0/8 -- --
08:00 22.4 22.4 10.8 ESE 5.6 5.6 16.7 48 1013.8(0.4/3h) 30 0/8 -- --
07:00 21.2 21.2 11.3 E 3.7 5.6 14.8 53 1013.7(0.4/3h) 30 0/8 -- --
06:00 18.6 18.6 11.1 E 3.7 5.6 18.5 62 1013.9(0.6/3h) 30 0/8 0/12h
--
05:00 16.3 16.3 11.3 ENE 1.9 3.7 5.6 72 1013.9(0.3/3h) 30 0/8 -- --
04:00 15.0 15.0 11.7 ESE 3.7 5.6 11.1 81 1013.8(-0.2/3h) 30 0/8 -- --
03:00 15.4 15.4 11.6 E 3.7 5.6 18.5 78 1013.5(-0.6/3h) 30 1/8 -- --
02:00 16.3 16.3 11.9 ESE 5.6 5.6 18.5 75 1013.6(-0.7/3h) 30 1/8 -- --
01:00 16.9 16.9 12.3 ESE 3.7 3.7 5.6 74 1013.8(-0.3/3h) 30 1/8 -- --
00:00 17.8 17.8 12.3 ESE 3.7 11.1 16.7 70 1014(0.1/3h) 30 1/8 0/6h
0/24h
--

1 Coordinated Universal Time. Actuellement il est 13:00 locale et 11:00 UTC.

2 Le vent souffle depuis la direction indiquée vers la direction oposée.

3 Les rafales max. sont disponible 40 min après l'heure du relevé.

4 Pour les stations d'altitude (plus de 600m) le géopotentiel du niveau le plus proche de la pression obligatoire est indiqué.

5 Les stations disposant d'un diffuseur peuvent indiquer "trace". Cela signifie que des précipitations ont touchés le sol mais que la quantité est inférieure à 0.1 mm.

Récapitulatif de la journée
Température [°C] Vent [km/h] Ensoleillement4 [h] Precipitations totale5 [mm] Pression [Hpa]
Min1 Max.2 Moy.3 Max. Min Max.
15.0 29.6 8.1 24.1 0 h 0 min 0 1010.8 1014.0

1 Température minimale relevée entre 18:00 UTC la veille et 18:00 UTC le jour donné.

2 Température maximale relevée entre 06:00 UTC le jour donné et 06:00 UTC le lendemain.

3 Vent moyen de la journée basé sur les relevés horaires.

4 Ensoleillement en heures relevé entre 06:00 UTC la veille et 06:00 UTC le jour donné.

5 Précipitations totales tombées entre 06:00 UTC la jour donné et 06:00 UTC le lendemain.

Graphiques horaires